createdAt,value
2019-03-17T00:00:16.750Z,4.30
2019-03-17T00:02:45.384Z,4.00
2019-03-17T00:05:14.130Z,4.70
2019-03-17T00:07:44.186Z,4.50
2019-03-17T00:10:12.838Z,4.13
2019-03-17T00:12:41.534Z,4.20
2019-03-17T00:15:11.079Z,4.20
2019-03-17T00:17:43.251Z,4.27
2019-03-17T00:20:12.065Z,4.30
2019-03-17T00:22:40.600Z,3.90
2019-03-17T00:25:10.279Z,3.57
2019-03-17T00:27:39.560Z,3.67
2019-03-17T00:30:10.874Z,3.90
2019-03-17T00:32:39.425Z,4.60
2019-03-17T00:35:08.029Z,5.47
2019-03-17T00:37:36.607Z,4.80
2019-03-17T00:40:08.507Z,3.40
2019-03-17T00:42:37.065Z,3.70
2019-03-17T00:45:11.593Z,3.97
2019-03-17T00:47:41.712Z,3.50
2019-03-17T00:50:11.839Z,3.63
2019-03-17T00:52:40.443Z,3.77
2019-03-17T00:55:09.166Z,3.83
2019-03-17T00:57:37.810Z,3.77
2019-03-17T01:00:12.230Z,3.70
2019-03-17T01:02:40.873Z,4.00
2019-03-17T01:05:09.518Z,3.97
2019-03-17T01:07:38.081Z,3.23
2019-03-17T01:10:08.427Z,3.37
2019-03-17T01:12:36.986Z,3.30
2019-03-17T01:15:06.746Z,3.87
2019-03-17T01:17:35.648Z,3.20
2019-03-17T01:20:06.070Z,3.97
2019-03-17T01:22:34.733Z,4.30
2019-03-17T01:25:03.847Z,4.00
2019-03-17T01:27:32.414Z,4.47
2019-03-17T01:30:01.010Z,4.83
2019-03-17T01:32:29.857Z,4.47
2019-03-17T01:35:08.593Z,3.77
2019-03-17T01:37:28.653Z,4.07
2019-03-17T01:39:57.245Z,4.00
2019-03-17T01:42:25.962Z,4.20
2019-03-17T01:44:54.543Z,3.83
2019-03-17T01:47:23.122Z,4.03
2019-03-17T01:49:51.712Z,3.83
2019-03-17T01:52:20.354Z,3.73
2019-03-17T01:54:48.948Z,3.30
2019-03-17T01:57:17.505Z,3.93
2019-03-17T01:59:46.018Z,3.30
2019-03-17T02:02:14.513Z,3.30
2019-03-17T02:04:43.165Z,3.20
2019-03-17T02:07:11.675Z,3.50
2019-03-17T02:09:40.195Z,3.37
2019-03-17T02:12:08.773Z,3.30
2019-03-17T02:14:37.289Z,3.70
2019-03-17T02:17:05.785Z,3.20
2019-03-17T02:19:34.404Z,3.40
2019-03-17T02:22:03.243Z,4.43
2019-03-17T02:24:31.834Z,3.77
2019-03-17T02:27:00.325Z,3.50
2019-03-17T02:29:28.861Z,3.40
2019-03-17T02:31:57.432Z,3.60
2019-03-17T02:34:26.086Z,4.40
2019-03-17T02:36:54.658Z,4.10
2019-03-17T02:39:26.310Z,3.13
2019-03-17T02:41:53.813Z,3.60
2019-03-17T02:44:22.375Z,3.20
2019-03-17T02:46:50.951Z,4.13
2019-03-17T02:49:19.591Z,3.43
2019-03-17T02:51:48.951Z,3.33
2019-03-17T02:54:17.530Z,3.07
2019-03-17T02:56:46.390Z,3.00
2019-03-17T02:59:14.963Z,3.20
2019-03-17T03:01:43.559Z,3.40
2019-03-17T03:04:12.340Z,2.90
2019-03-17T03:06:40.911Z,3.13
2019-03-17T03:09:09.474Z,3.43
2019-03-17T03:11:38.063Z,3.30
2019-03-17T03:14:06.625Z,3.37
2019-03-17T03:16:35.275Z,4.43
2019-03-17T03:19:03.864Z,3.47
2019-03-17T03:21:32.446Z,3.43
2019-03-17T03:24:01.021Z,4.63
2019-03-17T03:26:29.599Z,4.00
2019-03-17T03:28:58.165Z,3.90
2019-03-17T03:31:26.760Z,3.83
2019-03-17T03:33:55.326Z,4.00
2019-03-17T03:36:23.918Z,5.87
2019-03-17T03:38:52.488Z,4.77
2019-03-17T03:41:21.079Z,4.77
2019-03-17T03:43:49.652Z,4.57
2019-03-17T03:46:18.239Z,4.33
2019-03-17T03:48:46.821Z,3.63
2019-03-17T03:51:15.398Z,4.10
2019-03-17T03:53:43.902Z,5.10
2019-03-17T03:56:12.472Z,4.70
2019-03-17T03:58:41.050Z,4.93
2019-03-17T04:01:09.640Z,4.33
2019-03-17T04:03:38.223Z,5.10
2019-03-17T04:06:06.787Z,3.93
2019-03-17T04:08:35.354Z,5.47
2019-03-17T04:11:04.013Z,4.33
2019-03-17T04:13:32.583Z,4.20
2019-03-17T04:16:01.165Z,4.10
2019-03-17T04:18:29.736Z,4.10
2019-03-17T04:20:58.328Z,3.50
2019-03-17T04:23:26.967Z,4.70
2019-03-17T04:25:55.474Z,3.80
2019-03-17T04:28:24.045Z,3.73
2019-03-17T04:30:52.639Z,4.37
2019-03-17T04:33:21.207Z,4.37
2019-03-17T04:35:49.789Z,4.40
2019-03-17T04:38:18.283Z,3.47
2019-03-17T04:40:48.437Z,4.03
2019-03-17T04:43:16.993Z,5.17
2019-03-17T04:45:45.504Z,4.17
2019-03-17T04:48:14.085Z,3.93
2019-03-17T04:50:42.665Z,3.87
2019-03-17T04:53:11.224Z,4.17
2019-03-17T04:55:39.734Z,4.37
2019-03-17T04:58:08.297Z,4.17
2019-03-17T05:00:36.812Z,5.27
2019-03-17T05:03:05.382Z,4.90
2019-03-17T05:05:33.962Z,4.97
2019-03-17T05:08:02.532Z,4.03
2019-03-17T05:10:32.383Z,5.10
2019-03-17T05:13:00.950Z,5.50
2019-03-17T05:15:29.534Z,5.40
2019-03-17T05:17:58.090Z,5.57
2019-03-17T05:20:26.669Z,6.63
2019-03-17T05:22:55.158Z,5.60
2019-03-17T05:25:23.742Z,6.17
2019-03-17T05:27:52.237Z,6.93
2019-03-17T05:30:20.751Z,7.47
2019-03-17T05:32:49.310Z,8.63
2019-03-17T05:35:17.807Z,8.37
2019-03-17T05:37:46.389Z,8.53
2019-03-17T05:40:14.910Z,8.90
2019-03-17T05:42:43.488Z,9.33
2019-03-17T05:45:12.048Z,8.80
2019-03-17T05:47:40.703Z,9.90
2019-03-17T05:50:11.114Z,8.53
2019-03-17T05:52:39.697Z,8.70
2019-03-17T05:55:11.221Z,8.03
2019-03-17T05:57:39.811Z,7.77
2019-03-17T06:00:13.824Z,7.73
2019-03-17T06:02:42.398Z,8.43
2019-03-17T06:05:11.026Z,7.97
2019-03-17T06:07:39.596Z,7.47
2019-03-17T06:10:08.331Z,7.70
2019-03-17T06:12:36.928Z,7.63
2019-03-17T06:15:08.684Z,7.23
2019-03-17T06:17:37.262Z,6.60
2019-03-17T06:20:07.961Z,5.70
2019-03-17T06:22:36.541Z,7.00
2019-03-17T06:25:07.640Z,7.20
2019-03-17T06:27:36.234Z,6.40
2019-03-17T06:30:12.914Z,6.80
2019-03-17T06:32:41.638Z,7.27
2019-03-17T06:35:10.337Z,6.73
2019-03-17T06:37:38.918Z,7.20
2019-03-17T06:40:10.492Z,7.17
2019-03-17T06:42:39.070Z,7.07
2019-03-17T06:45:09.572Z,7.37
2019-03-17T06:47:38.231Z,7.10
2019-03-17T06:50:13.914Z,7.53
2019-03-17T06:52:42.491Z,7.57
2019-03-17T06:55:17.610Z,7.23
2019-03-17T06:57:46.193Z,6.97
2019-03-17T07:00:15.481Z,8.07
2019-03-17T07:02:44.075Z,8.00
2019-03-17T07:05:12.703Z,8.07
2019-03-17T07:07:44.226Z,9.03
2019-03-17T07:10:11.719Z,7.43
2019-03-17T07:12:40.302Z,8.43
2019-03-17T07:15:10.880Z,7.80
2019-03-17T07:17:39.455Z,7.87
2019-03-17T07:20:10.462Z,7.50
2019-03-17T07:22:39.046Z,6.70
2019-03-17T07:25:08.751Z,4.73
2019-03-17T07:27:37.338Z,4.63
2019-03-17T07:30:08.975Z,4.23
2019-03-17T07:32:37.563Z,2.33
2019-03-17T07:35:06.954Z,1.90
2019-03-17T07:37:35.545Z,2.00
2019-03-17T07:40:06.634Z,1.63
2019-03-17T07:42:35.218Z,1.80
2019-03-17T07:45:04.549Z,1.97
2019-03-17T07:47:35.598Z,1.40
2019-03-17T07:50:03.905Z,1.20
2019-03-17T07:52:32.487Z,1.30
2019-03-17T07:55:01.040Z,1.40
2019-03-17T07:57:29.631Z,1.30
2019-03-17T07:59:58.187Z,1.80
2019-03-17T08:02:26.902Z,1.50
2019-03-17T08:04:58.325Z,1.47
2019-03-17T08:07:28.946Z,3.80
2019-03-17T08:09:57.429Z,7.40
2019-03-17T08:12:26.025Z,17.00
2019-03-17T08:14:57.747Z,10.30
2019-03-17T08:17:24.895Z,9.13
2019-03-17T08:19:57.817Z,7.30
2019-03-17T08:22:26.326Z,16.67
2019-03-17T08:24:54.810Z,15.27
2019-03-17T08:27:23.483Z,6.47
2019-03-17T08:29:52.230Z,5.23
2019-03-17T08:32:20.810Z,12.60
2019-03-17T08:34:49.444Z,2.50
2019-03-17T08:37:17.958Z,1.23
2019-03-17T08:39:46.505Z,0.80
2019-03-17T08:42:15.154Z,1.00
2019-03-17T08:44:43.735Z,0.70
2019-03-17T08:47:12.403Z,0.80
2019-03-17T08:49:40.958Z,0.90
2019-03-17T08:52:11.489Z,1.10
2019-03-17T08:54:39.719Z,0.93
2019-03-17T08:57:08.306Z,1.07
2019-03-17T08:59:36.970Z,1.20
2019-03-17T09:02:05.620Z,1.00
2019-03-17T09:04:34.345Z,1.10
2019-03-17T09:07:03.026Z,1.13
2019-03-17T09:09:33.101Z,1.90
2019-03-17T09:12:01.694Z,1.40
2019-03-17T09:14:30.448Z,1.43
2019-03-17T09:17:13.454Z,1.30
2019-03-17T09:19:31.137Z,1.33
2019-03-17T09:21:59.704Z,1.50
2019-03-17T09:24:29.649Z,1.43
2019-03-17T09:27:01.045Z,1.60
2019-03-17T09:29:29.531Z,1.40
2019-03-17T09:31:58.040Z,1.70
2019-03-17T09:34:26.674Z,1.80
2019-03-17T09:36:55.248Z,1.60
2019-03-17T09:39:23.814Z,1.70
2019-03-17T09:41:52.762Z,1.90
2019-03-17T09:44:21.313Z,1.60
2019-03-17T09:46:49.821Z,1.67
2019-03-17T09:49:18.392Z,1.83
2019-03-17T09:51:46.957Z,2.17
2019-03-17T09:54:18.211Z,1.77
2019-03-17T09:56:46.770Z,1.87
2019-03-17T09:59:15.351Z,2.17
2019-03-17T10:01:44.054Z,2.07
2019-03-17T10:04:14.299Z,2.03
2019-03-17T10:06:42.928Z,2.40
2019-03-17T10:09:11.531Z,2.10
2019-03-17T10:11:40.102Z,1.83
2019-03-17T10:14:08.742Z,1.57
2019-03-17T10:16:37.306Z,1.70
2019-03-17T10:19:07.370Z,1.97
2019-03-17T10:21:35.935Z,2.10
2019-03-17T10:24:04.763Z,1.87
2019-03-17T10:26:33.383Z,1.90
2019-03-17T10:29:01.957Z,2.00
2019-03-17T10:31:30.458Z,1.93
2019-03-17T10:33:59.105Z,2.03
2019-03-17T10:36:27.594Z,2.10
2019-03-17T10:38:56.315Z,1.67
2019-03-17T10:41:26.465Z,1.50
2019-03-17T10:43:55.045Z,1.47
2019-03-17T10:46:23.670Z,1.20
2019-03-17T10:48:52.181Z,1.27
2019-03-17T10:51:20.734Z,1.03
2019-03-17T10:53:49.301Z,0.97
2019-03-17T10:56:17.790Z,1.03
2019-03-17T10:58:46.382Z,0.80
2019-03-17T11:01:20.407Z,0.93
2019-03-17T11:03:49.050Z,0.87
2019-03-17T11:06:17.685Z,0.93
2019-03-17T11:08:46.189Z,1.50
2019-03-17T11:11:14.771Z,1.47
2019-03-17T11:13:43.359Z,1.30
2019-03-17T11:16:13.229Z,1.10
2019-03-17T11:18:44.593Z,1.03
2019-03-17T11:21:13.238Z,1.20
2019-03-17T11:23:41.895Z,1.20
2019-03-17T11:26:10.453Z,0.90
2019-03-17T11:28:40.092Z,1.30
2019-03-17T11:31:08.814Z,1.27
2019-03-17T11:33:37.403Z,1.30
2019-03-17T11:36:05.981Z,1.30
2019-03-17T11:38:34.571Z,1.40
2019-03-17T11:41:04.674Z,1.40
2019-03-17T11:43:33.998Z,1.40
2019-03-17T11:46:02.564Z,1.10
2019-03-17T11:48:31.156Z,1.03
2019-03-17T11:50:59.845Z,0.80
2019-03-17T11:53:28.440Z,1.10
2019-03-17T11:55:57.062Z,3.43
2019-03-17T11:58:25.644Z,1.47
2019-03-17T12:00:54.207Z,1.20
2019-03-17T12:03:22.857Z,1.03
2019-03-17T12:05:53.984Z,1.30
2019-03-17T12:08:23.709Z,1.10
2019-03-17T12:10:52.405Z,1.33
2019-03-17T12:13:22.259Z,1.77
2019-03-17T12:15:50.822Z,1.23
2019-03-17T12:18:19.403Z,1.10
2019-03-17T12:20:48.030Z,1.33
2019-03-17T12:23:16.602Z,1.57
2019-03-17T12:25:45.090Z,1.47
2019-03-17T12:28:13.723Z,1.20
2019-03-17T12:30:43.839Z,1.10
2019-03-17T12:33:12.397Z,1.00
2019-03-17T12:35:40.973Z,1.00
2019-03-17T12:38:09.524Z,1.00
2019-03-17T12:40:38.103Z,1.50
2019-03-17T12:43:06.735Z,1.27
2019-03-17T12:45:35.290Z,1.47
2019-03-17T12:48:03.922Z,0.97
2019-03-17T12:50:32.494Z,1.30
2019-03-17T12:53:02.602Z,1.30
2019-03-17T12:55:31.190Z,1.30
2019-03-17T12:57:59.751Z,1.50
2019-03-17T13:00:28.513Z,1.20
2019-03-17T13:03:01.827Z,6.30
2019-03-17T13:05:30.423Z,38.13
2019-03-17T13:07:58.998Z,5.30
2019-03-17T13:10:27.579Z,3.90
2019-03-17T13:12:56.141Z,1.97
2019-03-17T13:15:24.676Z,3.93
2019-03-17T13:17:53.305Z,1.67
2019-03-17T13:20:21.962Z,1.70
2019-03-17T13:22:50.531Z,1.37
2019-03-17T13:25:19.176Z,1.60
2019-03-17T13:27:47.860Z,6.33
2019-03-17T13:30:18.318Z,3.70
2019-03-17T13:32:47.022Z,2.87
2019-03-17T13:35:15.657Z,1.30
2019-03-17T13:37:44.150Z,1.57
2019-03-17T13:40:28.148Z,1.47
2019-03-17T13:42:47.599Z,1.03
2019-03-17T13:45:16.283Z,1.20
2019-03-17T13:47:46.481Z,0.97
2019-03-17T13:50:16.986Z,1.73
2019-03-17T13:52:45.604Z,1.77
2019-03-17T13:55:14.178Z,2.33
2019-03-17T13:57:45.581Z,2.40
2019-03-17T14:00:15.471Z,1.40
2019-03-17T14:02:44.187Z,1.20
2019-03-17T14:05:13.220Z,1.53
2019-03-17T14:07:41.784Z,1.13
2019-03-17T14:10:15.849Z,1.97
2019-03-17T14:12:45.943Z,1.67
2019-03-17T14:15:15.316Z,2.27
2019-03-17T14:17:45.378Z,1.90
2019-03-17T14:20:16.572Z,1.67
2019-03-17T14:22:45.201Z,0.97
2019-03-17T14:25:16.225Z,1.57
2019-03-17T14:27:45.029Z,1.30
2019-03-17T14:30:16.176Z,1.50
2019-03-17T14:32:44.739Z,1.20
2019-03-17T14:35:13.491Z,1.40
2019-03-17T14:37:42.089Z,4.60
2019-03-17T14:40:15.667Z,1.80
2019-03-17T14:42:46.634Z,1.33
2019-03-17T14:45:16.356Z,1.13
2019-03-17T14:47:48.627Z,1.13
2019-03-17T14:50:24.311Z,1.03
2019-03-17T14:52:52.873Z,1.00
2019-03-17T14:55:25.070Z,1.17
2019-03-17T14:57:53.678Z,0.70
2019-03-17T15:00:23.606Z,1.03
2019-03-17T15:02:52.283Z,0.70
2019-03-17T15:05:25.199Z,1.17
2019-03-17T15:07:52.718Z,1.00
2019-03-17T15:10:23.077Z,1.40
2019-03-17T15:12:51.647Z,1.30
2019-03-17T15:15:21.062Z,1.20
2019-03-17T15:17:49.709Z,1.90
2019-03-17T15:20:23.841Z,1.40
2019-03-17T15:22:52.449Z,1.50
2019-03-17T15:25:22.163Z,1.50
2019-03-17T15:27:50.747Z,1.27
2019-03-17T15:30:26.437Z,2.13
2019-03-17T15:32:55.002Z,0.97
2019-03-17T15:35:23.654Z,1.33
2019-03-17T15:37:52.210Z,1.20
2019-03-17T15:40:21.740Z,1.57
2019-03-17T15:42:50.365Z,1.20
2019-03-17T15:45:20.075Z,1.50
2019-03-17T15:47:48.742Z,2.83
2019-03-17T15:50:22.317Z,1.80
2019-03-17T15:52:50.926Z,1.73
2019-03-17T15:55:19.655Z,2.03
2019-03-17T15:57:48.321Z,2.90
2019-03-17T16:00:25.324Z,1.60
2019-03-17T16:02:52.428Z,1.60
2019-03-17T16:05:22.163Z,3.07
2019-03-17T16:07:50.782Z,2.27
2019-03-17T16:10:21.766Z,3.40
2019-03-17T16:12:50.347Z,2.50
2019-03-17T16:15:20.170Z,2.60
2019-03-17T16:17:48.662Z,2.87
2019-03-17T16:20:21.998Z,1.93
2019-03-17T16:22:50.005Z,1.60
2019-03-17T16:25:24.834Z,2.33
2019-03-17T16:27:53.392Z,2.20
2019-03-17T16:30:26.493Z,1.70
2019-03-17T16:32:55.064Z,2.43
2019-03-17T16:35:24.649Z,2.10
2019-03-17T16:37:53.210Z,1.60
2019-03-17T16:40:33.769Z,1.97
2019-03-17T16:43:02.485Z,1.73
2019-03-17T16:45:31.558Z,1.90
2019-03-17T16:48:00.113Z,1.70
2019-03-17T16:50:28.697Z,2.13
2019-03-17T16:52:57.327Z,2.07
2019-03-17T16:55:25.902Z,1.93
2019-03-17T16:57:54.398Z,1.47
2019-03-17T17:00:25.010Z,1.90
2019-03-17T17:02:53.819Z,1.57
2019-03-17T17:05:23.354Z,1.33
2019-03-17T17:07:51.990Z,1.80
2019-03-17T17:10:30.541Z,2.10
2019-03-17T17:12:59.087Z,1.97
2019-03-17T17:15:29.774Z,1.87
2019-03-17T17:17:58.400Z,1.97
2019-03-17T17:20:29.305Z,1.93
2019-03-17T17:22:57.932Z,1.53
2019-03-17T17:25:26.512Z,1.30
2019-03-17T17:27:55.146Z,1.67
2019-03-17T17:30:23.714Z,1.47
2019-03-17T17:32:52.307Z,2.00
2019-03-17T17:35:20.922Z,2.30
2019-03-17T17:37:49.499Z,1.60
2019-03-17T17:40:19.513Z,3.10
2019-03-17T17:42:48.178Z,1.97
2019-03-17T17:45:18.274Z,2.10
2019-03-17T17:47:46.859Z,3.30
2019-03-17T17:50:17.637Z,2.00
2019-03-17T17:52:49.193Z,1.93
2019-03-17T17:55:17.685Z,3.20
2019-03-17T17:57:46.354Z,1.93
2019-03-17T18:00:19.183Z,1.57
2019-03-17T18:02:47.848Z,1.33
2019-03-17T18:05:16.553Z,1.90
2019-03-17T18:07:45.140Z,1.93
2019-03-17T18:10:15.034Z,1.70
2019-03-17T18:12:44.165Z,3.27
2019-03-17T18:15:28.370Z,2.60
2019-03-17T18:17:57.017Z,3.00
2019-03-17T18:20:25.587Z,1.97
2019-03-17T18:22:54.201Z,7.93
2019-03-17T18:25:22.935Z,7.03
2019-03-17T18:27:54.385Z,3.20
2019-03-17T18:30:27.079Z,2.93
2019-03-17T18:32:55.649Z,4.07
2019-03-17T18:35:24.253Z,2.40
2019-03-17T18:37:52.838Z,2.40
2019-03-17T18:40:24.235Z,2.30
2019-03-17T18:42:52.874Z,3.10
2019-03-17T18:45:28.894Z,4.23
2019-03-17T18:47:57.938Z,4.23
2019-03-17T18:50:27.135Z,2.40
2019-03-17T18:52:55.714Z,3.70
2019-03-17T18:55:25.817Z,3.80
2019-03-17T18:57:54.396Z,2.30
2019-03-17T19:00:24.293Z,2.47
2019-03-17T19:02:52.887Z,2.37
2019-03-17T19:05:21.449Z,2.10
2019-03-17T19:07:50.052Z,2.30
2019-03-17T19:10:22.278Z,2.20
2019-03-17T19:12:50.940Z,1.97
2019-03-17T19:15:23.132Z,2.90
2019-03-17T19:17:51.723Z,2.50
2019-03-17T19:20:24.028Z,1.50
2019-03-17T19:22:52.627Z,1.60
2019-03-17T19:25:22.222Z,2.10
2019-03-17T19:27:50.813Z,1.60
2019-03-17T19:30:23.292Z,1.80
2019-03-17T19:32:51.842Z,2.20
2019-03-17T19:35:20.545Z,2.70
2019-03-17T19:37:49.229Z,3.33
2019-03-17T19:40:24.874Z,1.80
2019-03-17T19:42:59.363Z,1.80
2019-03-17T19:45:23.761Z,2.13
2019-03-17T19:47:52.389Z,2.20
2019-03-17T19:50:23.956Z,2.40
2019-03-17T19:52:52.540Z,2.23
2019-03-17T19:55:21.092Z,2.43
2019-03-17T19:57:49.794Z,2.50
2019-03-17T20:00:20.456Z,2.70
2019-03-17T20:02:49.053Z,2.40
2019-03-17T20:05:17.761Z,1.97
2019-03-17T20:07:46.354Z,2.20
2019-03-17T20:10:25.859Z,2.30
2019-03-17T20:12:54.441Z,2.60
2019-03-17T20:15:23.115Z,2.73
2019-03-17T20:17:51.658Z,2.13
2019-03-17T20:20:20.146Z,2.27
2019-03-17T20:22:48.727Z,2.07
2019-03-17T20:25:17.280Z,2.10
2019-03-17T20:27:45.790Z,2.50
2019-03-17T20:30:20.348Z,2.30
2019-03-17T20:32:48.925Z,1.90
2019-03-17T20:35:17.534Z,2.20
2019-03-17T20:37:46.087Z,1.93
2019-03-17T20:40:15.608Z,2.03
2019-03-17T20:42:44.191Z,2.00
2019-03-17T20:45:16.099Z,1.70
2019-03-17T20:47:44.777Z,2.10
2019-03-17T20:50:14.574Z,2.00
2019-03-17T20:52:43.159Z,2.43
2019-03-17T20:55:12.351Z,2.07
2019-03-17T20:57:40.953Z,2.07
2019-03-17T21:00:20.131Z,2.20
2019-03-17T21:02:48.718Z,2.30
2019-03-17T21:05:17.358Z,2.20
2019-03-17T21:07:45.935Z,2.00
2019-03-17T21:10:15.282Z,2.00
2019-03-17T21:12:44.102Z,1.57
2019-03-17T21:15:14.870Z,2.30
2019-03-17T21:17:43.450Z,2.10
2019-03-17T21:20:16.061Z,1.70
2019-03-17T21:22:44.576Z,2.17
2019-03-17T21:25:13.286Z,1.63
2019-03-17T21:27:41.937Z,1.70
2019-03-17T21:30:19.332Z,1.53
2019-03-17T21:32:47.918Z,1.53
2019-03-17T21:35:16.481Z,1.70
2019-03-17T21:37:45.058Z,2.67
2019-03-17T21:40:13.691Z,1.70
2019-03-17T21:42:42.277Z,1.60
2019-03-17T21:45:12.089Z,1.63
2019-03-17T21:47:40.723Z,1.80
2019-03-17T21:50:20.573Z,1.63
2019-03-17T21:52:49.217Z,1.70
2019-03-17T21:55:17.874Z,1.87
2019-03-17T21:57:46.763Z,1.50
2019-03-17T22:00:17.073Z,1.97
2019-03-17T22:02:45.706Z,2.07
2019-03-17T22:05:14.431Z,1.63
2019-03-17T22:07:49.759Z,1.87
2019-03-17T22:10:15.953Z,2.23
2019-03-17T22:12:44.524Z,2.13
2019-03-17T22:15:14.155Z,2.30
2019-03-17T22:17:42.719Z,2.93
2019-03-17T22:20:13.307Z,3.47
2019-03-17T22:22:41.890Z,3.30
2019-03-17T22:25:11.616Z,2.90
2019-03-17T22:27:40.175Z,2.90
2019-03-17T22:30:16.917Z,3.60
2019-03-17T22:32:45.484Z,3.30
2019-03-17T22:35:14.206Z,3.20
2019-03-17T22:37:42.830Z,3.67
2019-03-17T22:40:16.115Z,3.67
2019-03-17T22:42:44.813Z,3.70
2019-03-17T22:45:14.329Z,4.00
2019-03-17T22:47:42.892Z,4.50
2019-03-17T22:50:16.743Z,4.10
2019-03-17T22:52:45.379Z,4.00
2019-03-17T22:55:14.698Z,4.00
2019-03-17T22:57:43.435Z,4.50
2019-03-17T23:00:34.323Z,3.57
2019-03-17T23:03:03.037Z,6.43
2019-03-17T23:05:31.614Z,3.90
2019-03-17T23:08:00.115Z,3.90
2019-03-17T23:10:28.693Z,4.20
2019-03-17T23:12:57.298Z,4.10
2019-03-17T23:15:25.885Z,3.47
2019-03-17T23:17:54.458Z,3.47
2019-03-17T23:20:23.120Z,3.30
2019-03-17T23:22:51.675Z,3.70
2019-03-17T23:25:20.263Z,3.53
2019-03-17T23:27:48.889Z,3.80
2019-03-17T23:30:21.157Z,3.60
2019-03-17T23:32:49.827Z,3.70
2019-03-17T23:35:18.686Z,3.60
2019-03-17T23:37:47.252Z,3.60
2019-03-17T23:40:16.976Z,3.60
2019-03-17T23:42:45.620Z,3.60
2019-03-17T23:45:14.942Z,3.47
2019-03-17T23:47:43.579Z,3.67
2019-03-17T23:50:14.275Z,4.07
2019-03-17T23:52:42.968Z,4.03
2019-03-17T23:55:12.522Z,3.80
2019-03-17T23:57:41.153Z,4.17
